Latest Coastal Weather Observations for Dennes Point

IDT60701

Issued at 9:41 pm EST Sunday 1 May 2016 (issued every 10 minutes, with the page automatically refreshed every 10 minutes)

About coastal observations | Map of coastal stations | Coastal observations for TAS | Marine services | Other Formats
Station Details ID: 094255 Name: DENNES POINT Lat: -43.06 Lon: 147.36 Height: 5.67 m
Data from the previous 72 hours. | See also: Recent months at Dennes Point
Date/Time
EST
Temp

°C
Wind Pressure Rain
since 9am
mm
Weather Cloud Vis
km
Sea
Height
m
Swell
Dir
 
Speed
knots
Gust
knots
hPa Trend Height
m
Period
s
Dir
01/09:30pm 10.8 W 25 31 998.7 - 11.8 - - - - - - -
01/09:17pm 11.2 W 21 29 998.6 - 11.8 - - - - - - -
01/09:03pm 11.4 WSW 20 31 997.9 - 11.8 - - - - - - -
01/09:00pm 11.2 WSW 18 25 998.0 - 11.8 - - - - - - -
01/08:30pm 11.1 WSW 21 29 997.3 - 11.8 - - - - - - -
01/08:09pm 11.4 WSW 24 34 996.3 - 11.8 - - - - - - -
01/08:00pm 11.2 WSW 26 32 995.7 - 11.8 - - - - - - -
01/07:37pm 11.1 WSW 23 33 994.9 - 11.8 - - - - - - -
01/07:30pm 11.1 WSW 23 30 994.7 - 11.8 - - - - - - -
01/07:00pm 11.3 WSW 24 33 993.8 - 11.8 - - - - - - -
01/06:30pm 11.6 WSW 28 36 992.8 - 11.2 - - - - - - -
01/06:10pm 12.0 WSW 27 38 991.6 - 10.2 - - - - - - -
01/06:00pm 12.1 WSW 28 37 990.8 - 9.8 Rain - - - - - -
01/05:33pm 13.1 W 25 36 989.3 - 8.2 - - - - - - -
01/05:30pm 13.3 W 23 31 989.4 - 8.0 - - - - - - -
01/05:23pm 13.3 W 20 31 989.1 - 7.8 - - - - - - -
01/05:13pm 13.4 W 15 24 988.8 - 7.6 - - - - - - -
01/05:00pm 13.5 W 8 11 988.7 - 7.6 - - - - - - -
01/04:30pm 13.3 WSW 8 10 988.4 - 6.4 - - - - - - -
01/04:00pm 14.3 W 6 8 987.8 - 4.8 - - - - - - -
01/03:30pm 15.1 WSW 2 4 987.4 - 4.6 - - - - - - -
01/03:00pm 15.2 CALM 0 0 987.4 - 4.6 - - - - - - -
01/02:30pm 15.0 N 6 8 987.1 - 4.6 - - - - - - -
01/02:00pm 15.0 N 5 6 987.4 - 4.6 - - - - - - -
01/01:30pm 15.1 N 7 11 988.2 - 4.6 - - - - - - -
01/01:00pm 14.8 N 11 15 988.8 - 4.4 - - - - - - -
01/12:30pm 14.2 NE 5 9 990.1 - 4.4 - - - - - - -
01/12:00pm 14.6 ESE 4 5 991.0 - 4.4 - - - - - - -
01/11:30am 13.8 N 4 5 991.9 - 4.4 - - - - - - -
01/11:00am 13.6 N 6 7 992.6 - 4.4 - - - - - - -
01/10:30am 13.5 NNE 5 7 993.4 - 4.4 - - - - - - -
01/10:00am 13.8 N 8 10 995.0 - 3.8 - - - - - - -
01/09:30am 13.9 WNW 7 11 995.5 - 3.4 - - - - - - -
01/09:00am 13.9 WSW 8 11 995.9 - 4.6 Rain - - - - - -
01/08:30am 14.2 WNW 14 24 997.1 - 4.2 - - - - - - -
01/08:01am 14.5 W 12 28 997.1 - 2.4 - - - - - - -
01/08:00am 14.6 W 10 25 997.2 - 2.4 - - - - - - -
01/07:58am 14.5 W 7 25 997.2 - 2.4 - - - - - - -
01/07:30am 14.5 CALM 0 2 996.7 - 2.4 - - - - - - -
01/07:00am 14.7 SSW 3 5 997.4 - 2.4 - - - - - - -
01/06:30am 15.0 NE 3 4 998.3 - 2.4 - - - - - - -
01/06:00am 15.3 NE 5 9 999.2 - 2.4 Rain - - - - - -
01/05:30am 15.7 NNW 7 10 1000.5 - 0.0 - - - - - - -
01/05:00am 16.4 NNE 11 13 1000.5 - 0.0 - - - - - - -
01/04:30am 16.1 NNE 9 12 1000.6 - 0.0 - - - - - - -
01/04:00am 16.2 NE 10 14 1000.9 - 0.0 - - - - - - -
01/03:30am 16.2 NE 10 12 1001.4 - 0.0 - - - - - - -
01/03:00am 16.2 NE 8 10 1001.8 - 0.0 - - - - - - -
01/02:30am 16.2 NE 10 12 1002.5 - 0.0 - - - - - - -
01/02:00am 16.3 NNE 9 13 1003.1 - 0.0 - - - - - - -
01/01:30am 15.7 N 3 5 1004.0 - 0.0 - - - - - - -
01/01:00am 16.2 NNE 7 12 1004.5 - 0.0 - - - - - - -
01/12:30am 15.6 CALM 0 0 1005.0 - 0.0 - - - - - - -
01/12:00am 15.4 W 3 5 1005.2 - 0.0 - - - - - - -
 
Date/Time
EST
Temp

°C
Wind Pressure Rain
since 9am
mm
Weather Cloud Vis
km
Sea
Height
m
Swell
Dir
 
Speed
knots
Gust
knots
hPa Trend Height
m
Period
s
Dir
30/11:30pm 16.3 NNE 7 9 1005.7 - 0.0 - - - - - - -
30/11:00pm 16.4 E 4 7 1006.0 - 0.0 - - - - - - -
30/10:30pm 16.6 SSE 3 6 1006.4 - 0.0 - - - - - - -
30/10:00pm 17.1 ENE 7 12 1006.7 - 0.0 - - - - - - -
30/09:30pm 17.2 NNE 7 12 1006.9 - 0.0 - - - - - - -
30/09:00pm 16.5 NNE 7 9 1006.6 - 0.0 - - - - - - -
30/08:30pm 16.9 NNW 5 7 1006.6 - 0.0 - - - - - - -
30/08:00pm 17.0 N 10 13 1006.4 - 0.0 - - - - - - -
30/07:30pm 17.5 NE 6 8 1006.7 - 0.0 - - - - - - -
30/07:00pm 17.7 E 4 6 1006.6 - 0.0 - - - - - - -
30/06:30pm 17.8 NNE 3 4 1006.5 - 0.0 - - - - - - -
30/06:00pm 17.8 N 2 3 1006.5 - 0.0 - - - - - - -
30/05:30pm 18.1 NNW 5 7 1006.4 - 0.0 - - - - - - -
30/05:00pm 19.1 NW 5 7 1006.3 - 0.0 - - - - - - -
30/04:30pm 18.4 N 7 9 1006.4 - 0.0 - - - - - - -
30/04:00pm 19.6 N 8 11 1006.7 - 0.0 - - - - - - -
30/03:30pm 21.3 NNW 9 15 1006.7 - 0.0 - - - - - - -
30/03:00pm 22.2 NW 6 13 1006.8 - 0.0 - - - - - - -
30/02:30pm 21.7 NW 7 17 1006.9 - 0.0 - - - - - - -
30/02:00pm 19.5 N 6 11 1006.9 - 0.0 - - - - - - -
30/01:30pm 19.1 N 7 9 1007.1 - 0.0 - - - - - - -
30/01:00pm 19.0 N 9 12 1007.6 - 0.0 - - - - - - -
30/12:30pm 19.5 NNE 10 13 1007.9 - 0.0 - - - - - - -
30/12:00pm 18.7 NNE 12 16 1008.8 - 0.0 - - - - - - -
30/11:30am 18.1 N 12 16 1009.5 - 0.0 - - - - - - -
30/11:00am 17.4 N 11 13 1009.9 - 0.0 - - - - - - -
30/10:30am 16.5 N 14 17 1010.1 - 0.0 - - - - - - -
30/10:00am 16.3 N 13 17 1010.4 - 0.0 - - - - - - -
30/09:30am 15.8 N 12 15 1011.0 - 0.0 - - - - - - -
30/09:00am 15.3 N 12 15 1011.4 - 0.0 - - - - - - -
30/08:30am 15.3 N 13 16 1011.2 - 0.0 - - - - - - -
30/08:00am 14.6 N 12 14 1011.4 - 0.0 - - - - - - -
30/07:30am 14.2 N 12 14 1011.0 - 0.0 - - - - - - -
30/07:00am 15.1 N 12 15 1010.8 - 0.0 - - - - - - -
30/06:30am 15.2 N 11 14 1010.6 - 0.0 - - - - - - -
30/06:00am 15.1 N 10 14 1010.8 - 0.0 - - - - - - -
30/05:30am 15.0 N 7 10 1010.8 - 0.0 - - - - - - -
30/05:00am 15.1 N 9 11 1010.5 - 0.0 - - - - - - -
30/04:30am 15.2 N 9 11 1010.3 - 0.0 - - - - - - -
30/04:00am 15.3 NNE 9 11 1010.1 - 0.0 - - - - - - -
30/03:30am 14.5 NW 3 6 1010.1 - 0.0 - - - - - - -
30/03:00am 15.7 N 9 11 1009.7 - 0.0 - - - - - - -
30/02:30am 15.6 NNW 5 8 1009.9 - 0.0 - - - - - - -
30/02:00am 13.6 SSW 3 5 1010.2 - 0.0 - - - - - - -
30/01:30am 15.1 WNW 3 7 1009.8 - 0.0 - - - - - - -
30/01:00am 16.1 N 9 11 1009.9 - 0.0 - - - - - - -
30/12:30am 16.0 N 9 12 1009.7 - 0.0 - - - - - - -
30/12:00am 15.9 N 5 6 1009.6 - 0.0 - - - - - - -
 
Date/Time
EST
Temp

°C
Wind Pressure Rain
since 9am
mm
Weather Cloud Vis
km
Sea
Height
m
Swell
Dir
 
Speed
knots
Gust
knots
hPa Trend Height
m
Period
s
Dir
29/11:30pm 16.2 N 4 8 1009.7 - 0.0 - - - - - - -
29/11:00pm 16.5 NNE 6 8 1009.8 - 0.0 - - - - - - -
29/10:30pm 16.2 NE 7 9 1009.7 - 0.0 - - - - - - -
29/10:00pm 15.8 NE 5 7 1009.8 - 0.0 - - - - - - -
29/09:30pm 16.2 N 8 10 1009.6 - 0.0 - - - - - - -
29/09:00pm 16.2 N 4 7 1009.1 - 0.0 - - - - - - -
29/08:30pm 16.5 ENE 5 7 1008.4 - 0.0 - - - - - - -
29/08:00pm 17.2 SW 4 8 1008.1 - 0.0 - - - - - - -
29/07:30pm 17.3 NNW 5 9 1007.9 - 0.0 - - - - - - -
29/07:00pm 17.0 N 4 6 1007.9 - 0.0 - - - - - - -
29/06:30pm 17.7 NNW 5 8 1008.1 - 0.0 - - - - - - -
29/06:00pm 17.7 N 15 18 1008.1 - 0.0 - - - - - - -
29/05:30pm 17.3 N 16 25 1007.9 - 0.0 - - - - - - -
29/05:27pm 17.7 N 16 25 1007.9 - 0.0 - - - - - - -
29/05:00pm 17.5 N 10 13 1008.0 - 0.0 - - - - - - -
29/04:30pm 18.1 N 12 17 1008.0 - 0.0 - - - - - - -
29/04:00pm 18.2 N 9 12 1007.8 - 0.0 - - - - - - -
29/03:30pm 17.9 N 6 11 1007.9 - 0.0 - - - - - - -
29/03:00pm 17.6 NNE 8 9 1007.6 - 0.0 - - - - - - -
29/02:30pm 18.6 N 9 12 1007.7 - 0.0 - - - - - - -
29/02:00pm 18.3 ENE 5 7 1007.8 - 0.0 - - - - - - -
29/01:30pm 18.2 E 6 10 1008.4 - 0.0 - - - - - - -
29/01:00pm 18.3 ENE 7 11 1008.9 - 0.0 - - - - - - -
29/12:30pm 17.7 ESE 11 13 1009.7 - 0.0 - - - - - - -
29/12:00pm 17.3 ESE 8 8 1010.5 - 0.0 - - - - - - -
29/11:30am 17.0 NE 11 12 1011.1 - 0.0 - - - - - - -
29/11:00am 16.8 NE 11 13 1011.7 - 0.0 - - - - - - -
29/10:30am 16.0 NNE 12 13 1012.4 - 0.0 - - - - - - -
29/10:00am 14.9 NNE 7 8 1013.0 - 0.0 - - - - - - -
29/09:30am 14.9 NNE 11 13 1013.2 - 0.0 - - - - - - -
29/09:00am 15.0 N 8 9 1013.9 - 1.6 - - - - - - -
29/08:30am 14.9 N 7 8 1014.4 - 1.6 - - - - - - -
29/08:00am 15.1 N 6 8 1014.6 - 1.6 - - - - - - -
29/07:30am 15.3 ENE 6 9 1014.4 - 1.6 - - - - - - -
29/07:00am 15.3 NE 4 7 1014.6 - 1.6 - - - - - - -
29/06:30am 14.9 ENE 4 6 1014.7 - 1.6 - - - - - - -
29/06:00am 15.1 NE 7 8 1015.0 - 1.6 - - - - - - -
29/05:30am 15.1 NE 6 7 1015.0 - 1.6 - - - - - - -
29/05:00am 15.1 NE 6 6 1015.4 - 1.6 - - - - - - -
29/04:30am 14.9 NNE 4 5 1015.7 - 1.6 - - - - - - -
29/04:00am 14.8 NE 6 7 1015.7 - 1.6 - - - - - - -
29/03:30am 14.6 NE 6 7 1016.2 - 1.6 - - - - - - -
29/03:00am 14.7 NNE 4 5 1016.9 - 1.6 - - - - - - -
29/02:30am 15.0 NNE 4 5 1017.2 - 1.6 - - - - - - -
29/02:00am 14.6 N 3 4 1017.2 - 1.6 - - - - - - -
29/01:30am 14.3 CALM 0 1 1017.7 - 1.6 - - - - - - -
29/01:00am 14.4 N 1 2 1017.7 - 1.6 - - - - - - -
29/12:30am 14.3 NNE 3 3 1017.9 - 1.6 - - - - - - -
29/12:00am 14.3 ENE 2 3 1018.0 - 1.6 - - - - - - -
 
Date/Time
EST
Temp

°C
Wind Pressure Rain
since 9am
mm
Weather Cloud Vis
km
Sea
Height
m
Swell
Dir
 
Speed
knots
Gust
knots
hPa Trend Height
m
Period
s
Dir
28/11:30pm 14.1 NE 2 3 1018.1 - 1.6 - - - - - - -
28/11:00pm 14.2 NE 2 2 1018.5 - 1.6 - - - - - - -
28/10:30pm 14.3 NE 2 3 1018.9 - 1.6 - - - - - - -
28/10:00pm 14.4 NE 3 4 1019.0 - 1.6 - - - - - - -

Other Formats:

Comma delimited format used in spreadsheet applications
http://www.bom.gov.au/fwo/IDT60701/IDT60701.94988.axf

JavaScript Object Notation format (JSON) in row-major order
http://www.bom.gov.au/fwo/IDT60701/IDT60701.94988.json